Time;durP1;ratioP1;P1;durP2;ratioP2;P2;SDS_P1;SDS_P2;PMS_P1;PMS_P2;Temp;Humidity;BMP_temperature;BMP_pressure;BME280_temperature;BME280_humidity;BME280_pressure;Samples;Min_cycle;Max_cycle;Signal;HPM_P1;HPM_P2
2022/04/07 00:01:23;;;;;;;2.65;0.98;;;;;;;;;;4951679;29;20033;-77
2022/04/07 00:03:50;;;;;;;1.45;0.70;;;;;;;;;;4951649;29;20101;-77
2022/04/07 00:06:16;;;;;;;0.65;0.32;;;;;;;;;;4952235;29;20026;-77
2022/04/07 00:08:42;;;;;;;1.67;0.73;;;;;;;;;;4955659;29;20023;-77
2022/04/07 00:11:09;;;;;;;1.08;0.60;;;;;;;;;;4952307;29;20027;-77
2022/04/07 00:13:35;;;;;;;1.40;0.73;;;;;;;;;;4943575;29;20027;-77
2022/04/07 00:16:02;;;;;;;1.27;0.60;;;;;;;;;;4951337;29;20054;-77
2022/04/07 00:18:28;;;;;;;1.13;0.40;;;;;;;;;;4951542;29;20030;-77
2022/04/07 00:20:55;;;;;;;1.15;0.50;;;;;;;;;;4951953;29;20027;-77
2022/04/07 00:23:21;;;;;;;0.65;0.38;;;;;;;;;;4952291;29;20027;-77
2022/04/07 00:25:48;;;;;;;1.08;0.52;;;;;;;;;;4951582;29;20041;-77
2022/04/07 00:28:14;;;;;;;2.65;1.05;;;;;;;;;;4950702;29;20516;-77
2022/04/07 00:30:41;;;;;;;1.55;0.40;;;;;;;;;;4943998;29;20035;-76
2022/04/07 00:33:08;;;;;;;0.75;0.38;;;;;;;;;;4952924;29;20011;-77
2022/04/07 00:35:34;;;;;;;1.85;0.80;;;;;;;;;;4954205;29;20035;-77
2022/04/07 00:38:01;;;;;;;1.90;0.55;;;;;;;;;;4951527;29;20420;-76
2022/04/07 00:40:27;;;;;;;0.90;0.40;;;;;;;;;;4950812;29;20086;-77
2022/04/07 00:42:54;;;;;;;0.90;0.30;;;;;;;;;;4944090;29;20039;-77
2022/04/07 00:45:22;;;;;;;0.38;0.30;;;;;;;;;;4950985;29;20547;-77
2022/04/07 00:47:49;;;;;;;1.35;0.30;;;;;;;;;;4939001;29;20027;-77
2022/04/07 00:50:17;;;;;;;1.35;0.40;;;;;;;;;;4955604;29;20355;-77
2022/04/07 00:52:47;;;;;;;1.85;0.60;;;;;;;;;;4950867;29;20027;-77
2022/04/07 00:55:17;;;;;;;0.82;0.40;;;;;;;;;;4940697;29;20029;-77
2022/04/07 00:57:44;;;;;;;1.73;0.40;;;;;;;;;;4950546;29;20038;-77
2022/04/07 01:00:11;;;;;;;0.30;0.30;;;;;;;;;;4952009;29;20036;-77
2022/04/07 01:02:38;;;;;;;1.73;0.43;;;;;;;;;;4953814;29;20408;-77
2022/04/07 01:05:05;;;;;;;1.05;0.52;;;;;;;;;;4951271;29;20027;-77
2022/04/07 01:07:32;;;;;;;2.03;0.65;;;;;;;;;;4950491;29;20038;-77
2022/04/07 01:09:59;;;;;;;3.80;0.75;;;;;;;;;;4950179;29;20023;-77
2022/04/07 01:12:26;;;;;;;1.00;0.80;;;;;;;;;;4950757;29;20023;-77
2022/04/07 01:14:56;;;;;;;1.10;1.00;;;;;;;;;;4954270;29;20033;-77
2022/04/07 01:17:22;;;;;;;1.30;0.93;;;;;;;;;;4952117;29;20119;-77
2022/04/07 01:19:49;;;;;;;2.60;1.00;;;;;;;;;;4950540;29;20039;-77
2022/04/07 01:22:15;;;;;;;1.58;0.80;;;;;;;;;;4950260;29;20030;-77
2022/04/07 01:24:41;;;;;;;4.10;1.00;;;;;;;;;;4949803;29;20420;-77
2022/04/07 01:27:08;;;;;;;0.80;0.80;;;;;;;;;;4951715;29;20041;-77
2022/04/07 01:29:34;;;;;;;1.30;1.20;;;;;;;;;;4953360;29;20027;-77
2022/04/07 01:32:07;;;;;;;3.25;1.15;;;;;;;;;;4950654;29;20027;-77
2022/04/07 01:34:33;;;;;;;2.45;1.30;;;;;;;;;;4949370;29;20023;-77
2022/04/07 01:37:01;;;;;;;1.80;1.17;;;;;;;;;;4950097;29;20038;-77
2022/04/07 01:39:27;;;;;;;1.67;1.58;;;;;;;;;;4940567;29;20028;-77
2022/04/07 01:41:54;;;;;;;2.72;1.45;;;;;;;;;;4953675;29;20015;-77
2022/04/07 01:44:22;;;;;;;1.80;1.40;;;;;;;;;;4951455;29;20062;-76
2022/04/07 01:46:51;;;;;;;4.10;1.60;;;;;;;;;;4950269;29;20461;-76
2022/04/07 01:49:19;;;;;;;3.17;1.33;;;;;;;;;;4949727;29;20024;-77
2022/04/07 01:51:46;;;;;;;3.65;1.55;;;;;;;;;;4949764;29;20506;-77
2022/04/07 01:54:14;;;;;;;2.63;1.45;;;;;;;;;;4950795;29;20037;-77
2022/04/07 01:56:40;;;;;;;2.25;1.55;;;;;;;;;;4953189;29;20485;-76
2022/04/07 01:59:08;;;;;;;4.40;1.55;;;;;;;;;;4950384;29;20039;-77
2022/04/07 02:01:35;;;;;;;3.13;1.67;;;;;;;;;;4949622;29;20030;-76
2022/04/07 02:04:01;;;;;;;1.80;1.10;;;;;;;;;;4949469;29;20035;-76
2022/04/07 02:06:27;;;;;;;3.20;1.20;;;;;;;;;;4949458;29;20437;-77
2022/04/07 02:08:54;;;;;;;1.60;1.02;;;;;;;;;;4953067;29;20027;-77
2022/04/07 02:11:22;;;;;;;2.08;1.20;;;;;;;;;;4950638;29;20431;-77
2022/04/07 02:13:49;;;;;;;1.95;1.15;;;;;;;;;;4949592;29;20027;-77
2022/04/07 02:16:15;;;;;;;4.00;1.00;;;;;;;;;;4949409;29;20019;-76
2022/04/07 02:18:42;;;;;;;2.53;0.85;;;;;;;;;;4949243;29;20031;-77
2022/04/07 02:21:09;;;;;;;1.73;1.10;;;;;;;;;;4951297;29;20027;-76
2022/04/07 02:23:42;;;;;;;1.50;0.98;;;;;;;;;;4952155;29;20027;-77
2022/04/07 02:26:16;;;;;;;2.20;0.90;;;;;;;;;;4949812;29;20039;-77
2022/04/07 02:28:42;;;;;;;1.55;0.80;;;;;;;;;;4948934;29;20416;-77
2022/04/07 02:31:09;;;;;;;2.00;0.80;;;;;;;;;;4949281;29;20034;-77
2022/04/07 02:33:36;;;;;;;1.13;0.82;;;;;;;;;;4949384;29;20489;-77
2022/04/07 02:36:03;;;;;;;1.30;0.88;;;;;;;;;;4951599;29;20078;-77
2022/04/07 02:38:29;;;;;;;2.17;0.90;;;;;;;;;;4950910;29;20519;-77
2022/04/07 02:40:55;;;;;;;1.75;1.00;;;;;;;;;;4949609;29;20039;-77
2022/04/07 02:43:22;;;;;;;3.72;1.00;;;;;;;;;;4948983;29;20033;-77
2022/04/07 02:45:48;;;;;;;1.67;1.02;;;;;;;;;;4949253;29;20031;-76
2022/04/07 02:48:14;;;;;;;1.23;0.85;;;;;;;;;;4950159;29;20019;-77
2022/04/07 02:50:41;;;;;;;5.50;1.10;;;;;;;;;;4953005;29;20526;-77
2022/04/07 02:53:07;;;;;;;2.67;1.10;;;;;;;;;;4949172;29;20412;-77
2022/04/07 02:55:33;;;;;;;3.22;1.20;;;;;;;;;;4948999;29;20137;-77
2022/04/07 02:58:00;;;;;;;4.90;1.20;;;;;;;;;;4948701;29;20050;-77
2022/04/07 03:00:26;;;;;;;4.72;1.35;;;;;;;;;;4948885;29;20036;-77
2022/04/07 03:02:53;;;;;;;4.25;1.40;;;;;;;;;;4952506;29;20038;-77
2022/04/07 03:05:19;;;;;;;3.67;1.38;;;;;;;;;;4950497;29;20031;-77
2022/04/07 03:07:45;;;;;;;4.70;1.30;;;;;;;;;;4936103;29;20023;-77
2022/04/07 03:10:12;;;;;;;7.15;1.60;;;;;;;;;;4938593;29;20041;-77
2022/04/07 03:12:38;;;;;;;2.33;1.67;;;;;;;;;;4948696;28;20028;-77
2022/04/07 03:15:08;;;;;;;4.68;1.67;;;;;;;;;;4950733;29;20016;-77
2022/04/07 03:17:34;;;;;;;2.00;1.45;;;;;;;;;;4951819;29;20034;-77
2022/04/07 03:20:01;;;;;;;2.78;1.60;;;;;;;;;;4949188;29;20534;-77
2022/04/07 03:22:27;;;;;;;2.30;1.70;;;;;;;;;;4948339;29;20036;-76
2022/04/07 03:24:53;;;;;;;2.00;1.30;;;;;;;;;;4948660;29;20031;-77
2022/04/07 03:27:20;;;;;;;2.25;1.50;;;;;;;;;;4948556;29;20038;-77
2022/04/07 03:29:46;;;;;;;4.05;1.20;;;;;;;;;;4952989;29;20033;-77
2022/04/07 03:32:13;;;;;;;5.35;1.50;;;;;;;;;;4952412;29;20027;-76
2022/04/07 03:34:39;;;;;;;2.67;1.40;;;;;;;;;;4948366;29;20496;-76
2022/04/07 03:37:06;;;;;;;2.53;1.25;;;;;;;;;;4948153;29;20027;-77
2022/04/07 03:39:32;;;;;;;1.80;1.10;;;;;;;;;;4948381;29;20377;-76
2022/04/07 03:41:59;;;;;;;1.25;1.02;;;;;;;;;;4940317;29;20082;-77
2022/04/07 03:44:26;;;;;;;2.25;1.20;;;;;;;;;;4950597;29;20032;-77
2022/04/07 03:46:52;;;;;;;0.85;0.85;;;;;;;;;;4948981;29;20388;-77
2022/04/07 03:49:20;;;;;;;1.33;0.85;;;;;;;;;;4938501;29;20023;-75
2022/04/07 03:51:46;;;;;;;1.30;0.88;;;;;;;;;;4948426;29;20019;-77
2022/04/07 03:54:14;;;;;;;1.15;1.05;;;;;;;;;;4949466;29;20382;-77
2022/04/07 03:56:41;;;;;;;1.58;1.10;;;;;;;;;;4952336;28;20035;-76
2022/04/07 03:59:07;;;;;;;1.15;0.90;;;;;;;;;;4952331;29;20038;-76
2022/04/07 04:01:35;;;;;;;0.95;0.73;;;;;;;;;;4951810;29;20091;-77
2022/04/07 04:04:04;;;;;;;1.02;0.73;;;;;;;;;;4951439;29;20047;-76
2022/04/07 04:06:30;;;;;;;1.15;0.60;;;;;;;;;;4951950;29;20035;-77
2022/04/07 04:08:57;;;;;;;0.80;0.80;;;;;;;;;;4955107;29;20378;-76
2022/04/07 04:11:23;;;;;;;2.53;1.02;;;;;;;;;;4953213;29;20404;-77
2022/04/07 04:13:49;;;;;;;0.88;0.65;;;;;;;;;;4955279;29;20041;-77
2022/04/07 04:16:17;;;;;;;2.17;0.90;;;;;;;;;;4951831;29;20027;-77
2022/04/07 04:18:44;;;;;;;1.38;0.80;;;;;;;;;;4951322;29;20055;-77
2022/04/07 04:21:10;;;;;;;0.90;0.90;;;;;;;;;;4953012;29;20042;-77
2022/04/07 04:23:38;;;;;;;2.65;1.10;;;;;;;;;;4954743;29;20039;-76
2022/04/07 04:26:05;;;;;;;1.05;0.98;;;;;;;;;;4952091;29;20027;-77
2022/04/07 04:28:31;;;;;;;1.65;0.88;;;;;;;;;;4951136;29;20081;-77
2022/04/07 04:30:57;;;;;;;2.03;1.00;;;;;;;;;;4951232;29;20028;-77
2022/04/07 04:33:24;;;;;;;1.75;1.02;;;;;;;;;;4941322;29;20041;-76
2022/04/07 04:35:50;;;;;;;1.65;1.08;;;;;;;;;;4955281;29;20035;-77
2022/04/07 04:38:17;;;;;;;1.30;0.90;;;;;;;;;;4952383;29;20031;-76
2022/04/07 04:40:43;;;;;;;1.83;1.10;;;;;;;;;;4955346;29;20047;-77
2022/04/07 04:43:09;;;;;;;1.55;0.95;;;;;;;;;;4951120;29;20035;-77
2022/04/07 04:45:36;;;;;;;1.45;1.08;;;;;;;;;;4941250;29;20031;-77
2022/04/07 04:48:03;;;;;;;2.70;1.27;;;;;;;;;;4952907;29;20519;-77
2022/04/07 04:50:29;;;;;;;4.50;2.00;;;;;;;;;;4953351;29;20027;-77
2022/04/07 04:52:56;;;;;;;2.65;1.38;;;;;;;;;;4951712;29;20027;-77
2022/04/07 04:55:22;;;;;;;2.88;1.30;;;;;;;;;;4950798;29;20033;-76
2022/04/07 04:57:48;;;;;;;2.22;1.10;;;;;;;;;;4950780;29;20031;-77
2022/04/07 05:00:15;;;;;;;2.28;1.20;;;;;;;;;;4951500;29;20050;-77
2022/04/07 05:02:41;;;;;;;1.67;1.20;;;;;;;;;;4954149;29;20502;-77
2022/04/07 05:05:08;;;;;;;1.80;1.25;;;;;;;;;;4950290;29;20035;-77
2022/04/07 05:07:34;;;;;;;2.78;1.67;;;;;;;;;;4950370;28;20412;-77
2022/04/07 05:10:01;;;;;;;3.50;1.60;;;;;;;;;;4950011;29;20031;-77
2022/04/07 05:12:27;;;;;;;1.00;0.90;;;;;;;;;;4941440;29;20031;-76
2022/04/07 05:14:53;;;;;;;2.33;1.23;;;;;;;;;;4954144;29;20033;-77
2022/04/07 05:17:20;;;;;;;2.90;1.15;;;;;;;;;;4951596;29;20042;-77
2022/04/07 05:19:46;;;;;;;3.67;1.10;;;;;;;;;;4950651;29;20043;-77
2022/04/07 05:22:13;;;;;;;2.35;1.30;;;;;;;;;;4939957;29;20027;-76
2022/04/07 05:24:39;;;;;;;1.70;1.00;;;;;;;;;;4950159;29;20416;-77
2022/04/07 05:27:05;;;;;;;2.40;1.15;;;;;;;;;;4952077;29;20419;-76
2022/04/07 05:29:32;;;;;;;1.75;1.42;;;;;;;;;;4953046;29;20023;-77
2022/04/07 05:32:00;;;;;;;1.50;1.40;;;;;;;;;;4950186;29;20531;-77
2022/04/07 05:34:26;;;;;;;2.50;1.40;;;;;;;;;;4949800;29;20030;-76
2022/04/07 05:36:52;;;;;;;3.47;1.65;;;;;;;;;;4950029;29;20541;-77
2022/04/07 05:39:19;;;;;;;4.40;1.67;;;;;;;;;;4950027;29;20034;-77
2022/04/07 05:41:45;;;;;;;2.20;1.58;;;;;;;;;;4954121;29;20031;-77
2022/04/07 05:44:12;;;;;;;6.82;4.30;;;;;;;;;;4950506;29;20023;-77
2022/04/07 05:46:38;;;;;;;6.78;2.92;;;;;;;;;;4949584;29;20031;-77
2022/04/07 05:49:04;;;;;;;5.10;3.00;;;;;;;;;;4949774;29;20020;-76
2022/04/07 05:51:31;;;;;;;7.57;3.70;;;;;;;;;;4949972;29;20034;-77
2022/04/07 05:53:57;;;;;;;5.78;3.17;;;;;;;;;;4953021;29;20023;-77
2022/04/07 05:56:23;;;;;;;4.07;3.20;;;;;;;;;;4951256;29;20027;-77
2022/04/07 05:58:50;;;;;;;4.30;2.97;;;;;;;;;;4953301;29;20041;-77
2022/04/07 06:01:17;;;;;;;6.47;5.03;;;;;;;;;;4949609;29;20031;-77
2022/04/07 06:03:44;;;;;;;4.45;2.70;;;;;;;;;;4949571;29;20011;-76
2022/04/07 06:06:10;;;;;;;4.40;3.40;;;;;;;;;;4951026;29;20036;-77
2022/04/07 06:08:36;;;;;;;4.53;3.25;;;;;;;;;;4951270;29;20027;-77
2022/04/07 06:11:03;;;;;;;8.38;3.20;;;;;;;;;;4950089;29;20077;-77
2022/04/07 06:13:29;;;;;;;10.23;4.97;;;;;;;;;;4949659;29;20035;-77
2022/04/07 06:15:55;;;;;;;6.43;3.92;;;;;;;;;;4948989;29;20030;-77
2022/04/07 06:18:22;;;;;;;7.55;4.13;;;;;;;;;;4950564;29;20027;-77
2022/04/07 06:20:48;;;;;;;9.90;4.85;;;;;;;;;;4953022;28;20039;-77
2022/04/07 06:23:16;;;;;;;11.05;4.47;;;;;;;;;;4949252;29;20031;-76
2022/04/07 06:25:42;;;;;;;9.57;4.63;;;;;;;;;;4953347;28;20031;-77
2022/04/07 06:28:09;;;;;;;8.20;4.72;;;;;;;;;;4949066;29;20031;-77
2022/04/07 06:30:35;;;;;;;8.88;4.28;;;;;;;;;;4947918;29;20027;-77
2022/04/07 06:33:01;;;;;;;7.97;4.35;;;;;;;;;;4951198;29;20041;-77
2022/04/07 06:35:28;;;;;;;9.82;3.80;;;;;;;;;;4948808;29;20031;-77
2022/04/07 06:37:56;;;;;;;9.05;4.53;;;;;;;;;;4950669;29;20515;-77
2022/04/07 06:40:31;;;;;;;10.15;4.30;;;;;;;;;;4948559;29;20035;-77
2022/04/07 06:42:59;;;;;;;6.95;4.20;;;;;;;;;;4948598;29;20032;-78
2022/04/07 06:45:26;;;;;;;10.80;4.82;;;;;;;;;;4947768;29;20035;-77
2022/04/07 06:47:52;;;;;;;11.77;5.43;;;;;;;;;;4951175;29;20323;-78
2022/04/07 06:50:19;;;;;;;7.22;5.57;;;;;;;;;;4948455;29;20019;-78
2022/04/07 06:52:46;;;;;;;9.27;4.43;;;;;;;;;;4947699;29;20042;-78
2022/04/07 06:55:13;;;;;;;6.80;4.28;;;;;;;;;;4950926;29;20035;-78
2022/04/07 06:57:52;;;;;;;7.70;4.68;;;;;;;;;;4949584;29;20030;-77
2022/04/07 07:00:20;;;;;;;10.43;4.95;;;;;;;;;;4932135;29;20036;-78
2022/04/07 07:02:47;;;;;;;8.27;4.43;;;;;;;;;;4951830;29;20027;-77
2022/04/07 07:05:14;;;;;;;11.88;6.00;;;;;;;;;;4952111;29;20041;-77
2022/04/07 07:07:40;;;;;;;10.90;5.60;;;;;;;;;;4951417;29;20027;-78
2022/04/07 07:10:06;;;;;;;14.52;5.78;;;;;;;;;;4951602;29;20035;-78
2022/04/07 07:12:33;;;;;;;13.15;5.22;;;;;;;;;;4950581;29;20039;-78
2022/04/07 07:14:59;;;;;;;14.23;5.22;;;;;;;;;;4951241;29;20505;-78
2022/04/07 07:17:33;;;;;;;10.50;5.45;;;;;;;;;;4934971;29;20046;-78
2022/04/07 07:20:06;;;;;;;14.40;5.53;;;;;;;;;;4951841;29;20054;-78
2022/04/07 07:22:32;;;;;;;6.72;4.70;;;;;;;;;;4951247;29;20023;-78
2022/04/07 07:24:59;;;;;;;10.55;5.75;;;;;;;;;;4947355;29;20505;-78
2022/04/07 07:27:25;;;;;;;11.82;4.70;;;;;;;;;;4945717;29;20513;-78
2022/04/07 07:29:52;;;;;;;9.90;4.65;;;;;;;;;;4950489;29;20031;-78
2022/04/07 07:32:18;;;;;;;11.43;5.28;;;;;;;;;;4953091;28;20037;-77
2022/04/07 07:34:44;;;;;;;8.68;4.38;;;;;;;;;;4955421;29;20027;-77
2022/04/07 07:37:11;;;;;;;7.50;4.75;;;;;;;;;;4954381;29;20023;-78
2022/04/07 07:39:37;;;;;;;14.20;5.03;;;;;;;;;;4954805;29;20033;-78
2022/04/07 07:42:04;;;;;;;7.00;4.25;;;;;;;;;;4953419;29;20030;-78
2022/04/07 07:44:31;;;;;;;10.40;5.38;;;;;;;;;;4953280;29;20037;-78
2022/04/07 07:46:57;;;;;;;11.15;4.78;;;;;;;;;;4954069;29;20039;-78
2022/04/07 07:49:23;;;;;;;12.68;4.63;;;;;;;;;;4951803;29;20027;-78
2022/04/07 07:51:51;;;;;;;9.55;5.43;;;;;;;;;;4950956;29;20029;-78
2022/04/07 07:54:18;;;;;;;10.70;4.70;;;;;;;;;;4951895;29;20488;-78
2022/04/07 07:56:44;;;;;;;13.63;4.93;;;;;;;;;;4955171;29;20019;-78
2022/04/07 07:59:10;;;;;;;18.17;6.10;;;;;;;;;;4951750;29;20480;-78
2022/04/07 08:01:37;;;;;;;7.22;4.07;;;;;;;;;;4954743;29;20024;-79
2022/04/07 08:04:03;;;;;;;12.43;3.92;;;;;;;;;;4951130;29;20035;-78
2022/04/07 08:06:30;;;;;;;10.43;4.32;;;;;;;;;;4951080;29;20020;-78
2022/04/07 08:08:56;;;;;;;13.15;5.05;;;;;;;;;;4954766;29;20488;-78
2022/04/07 08:11:22;;;;;;;10.10;5.18;;;;;;;;;;4951152;29;20027;-78
2022/04/07 08:13:49;;;;;;;7.47;3.33;;;;;;;;;;4950599;29;20032;-78
2022/04/07 08:16:15;;;;;;;9.38;3.95;;;;;;;;;;4951074;29;20033;-78
2022/04/07 08:18:41;;;;;;;7.25;3.35;;;;;;;;;;4950831;29;20515;-78
2022/04/07 08:21:08;;;;;;;9.77;4.60;;;;;;;;;;4952578;29;20037;-78
2022/04/07 08:23:34;;;;;;;17.27;5.50;;;;;;;;;;4953337;29;20027;-78
2022/04/07 08:26:01;;;;;;;11.40;3.78;;;;;;;;;;4950676;29;20042;-78
2022/04/07 08:28:27;;;;;;;10.15;3.35;;;;;;;;;;4954035;29;20070;-78
2022/04/07 08:30:53;;;;;;;12.43;4.45;;;;;;;;;;4950260;29;20419;-78
2022/04/07 08:33:20;;;;;;;11.10;4.07;;;;;;;;;;4934638;29;20030;-78
2022/04/07 08:35:46;;;;;;;8.80;3.58;;;;;;;;;;4954917;29;20046;-78
2022/04/07 08:38:15;;;;;;;13.80;6.47;;;;;;;;;;4950582;29;20027;-78
2022/04/07 08:40:42;;;;;;;15.95;7.35;;;;;;;;;;4950117;29;20468;-78
2022/04/07 08:43:09;;;;;;;12.80;5.90;;;;;;;;;;4936888;29;20044;-78
2022/04/07 08:45:42;;;;;;;22.77;10.90;;;;;;;;;;4950547;29;20036;-78
2022/04/07 08:48:10;;;;;;;10.80;5.65;;;;;;;;;;4951240;29;20378;-78
2022/04/07 08:50:39;;;;;;;6.97;3.85;;;;;;;;;;4953214;29;20034;-78
2022/04/07 08:53:05;;;;;;;14.30;7.00;;;;;;;;;;4954066;29;20045;-78
2022/04/07 08:55:31;;;;;;;21.63;8.65;;;;;;;;;;4950106;29;20499;-78
2022/04/07 08:57:58;;;;;;;11.50;3.40;;;;;;;;;;4952742;29;20027;-78
2022/04/07 09:00:24;;;;;;;12.35;3.83;;;;;;;;;;4952519;29;20404;-78
2022/04/07 09:02:52;;;;;;;13.93;7.47;;;;;;;;;;4949066;29;20035;-77
2022/04/07 09:05:23;;;;;;;14.15;8.35;;;;;;;;;;4954663;29;20099;-78
2022/04/07 09:07:50;;;;;;;6.65;2.65;;;;;;;;;;4949740;29;20043;-78
2022/04/07 09:10:19;;;;;;;8.40;4.35;;;;;;;;;;4949283;29;20041;-78
2022/04/07 09:12:45;;;;;;;7.80;3.50;;;;;;;;;;4953944;29;20074;-78
2022/04/07 09:15:15;;;;;;;7.72;4.57;;;;;;;;;;4951508;29;20074;-78
2022/04/07 09:18:08;;;;;;;6.60;2.17;;;;;;;;;;4953489;29;20034;-78
2022/04/07 09:20:42;;;;;;;7.20;3.38;;;;;;;;;;4950800;28;20534;-78
2022/04/07 09:23:11;;;;;;;9.50;4.80;;;;;;;;;;4951053;29;20027;-78
2022/04/07 09:25:41;;;;;;;8.77;2.97;;;;;;;;;;4948678;29;20538;-78
2022/04/07 09:28:11;;;;;;;9.38;2.78;;;;;;;;;;4951968;29;20096;-78
2022/04/07 09:30:38;;;;;;;8.10;2.30;;;;;;;;;;4950179;29;20047;-78
2022/04/07 09:33:04;;;;;;;8.23;2.72;;;;;;;;;;4951824;29;20078;-79
2022/04/07 09:35:30;;;;;;;11.65;2.80;;;;;;;;;;4953747;29;20030;-78
2022/04/07 09:38:01;;;;;;;8.63;2.00;;;;;;;;;;4952873;29;20500;-79
2022/04/07 09:40:28;;;;;;;7.78;2.30;;;;;;;;;;4948621;29;20047;-79
2022/04/07 09:42:58;;;;;;;6.78;1.90;;;;;;;;;;4948855;29;20023;-79
2022/04/07 09:45:25;;;;;;;11.90;3.22;;;;;;;;;;4952249;29;20504;-78
2022/04/07 09:47:55;;;;;;;9.52;3.60;;;;;;;;;;4952093;29;20049;-79
2022/04/07 09:50:35;;;;;;;4.10;2.17;;;;;;;;;;4953180;29;20031;-79
2022/04/07 09:53:03;;;;;;;6.82;3.05;;;;;;;;;;4952054;29;20026;-79
2022/04/07 09:55:34;;;;;;;6.93;2.25;;;;;;;;;;4950461;29;20027;-78
2022/04/07 09:58:02;;;;;;;7.28;2.10;;;;;;;;;;4948823;29;20036;-79
2022/04/07 10:00:29;;;;;;;6.97;2.40;;;;;;;;;;4948147;29;20046;-78
2022/04/07 10:02:56;;;;;;;6.55;3.15;;;;;;;;;;4952342;29;20011;-78
2022/04/07 10:05:23;;;;;;;6.88;2.55;;;;;;;;;;4951411;29;20396;-78
2022/04/07 10:07:50;;;;;;;10.52;2.78;;;;;;;;;;4951775;29;20024;-78
2022/04/07 10:10:20;;;;;;;11.00;3.95;;;;;;;;;;4947604;29;20037;-78
2022/04/07 10:12:46;;;;;;;6.85;2.60;;;;;;;;;;4948631;29;20030;-78
2022/04/07 10:15:14;;;;;;;8.68;2.97;;;;;;;;;;4949751;29;20032;-78
2022/04/07 10:17:40;;;;;;;6.05;3.28;;;;;;;;;;4950173;29;20041;-78
2022/04/07 10:20:09;;;;;;;12.07;3.88;;;;;;;;;;4944044;29;20038;-78
2022/04/07 10:22:54;;;;;;;8.73;3.65;;;;;;;;;;4942660;29;20459;-78
2022/04/07 10:25:20;;;;;;;7.50;3.67;;;;;;;;;;4942062;29;20041;-78
2022/04/07 10:27:50;;;;;;;6.18;2.55;;;;;;;;;;4928159;29;20038;-78
2022/04/07 10:30:17;;;;;;;8.43;3.40;;;;;;;;;;4948984;29;20054;-78
2022/04/07 10:32:52;;;;;;;9.50;1.88;;;;;;;;;;4952245;29;20023;-78
2022/04/07 10:35:33;;;;;;;8.50;3.60;;;;;;;;;;4951635;29;20477;-77
2022/04/07 10:38:11;;;;;;;12.68;3.88;;;;;;;;;;4946711;29;20384;-78
2022/04/07 10:40:39;;;;;;;9.63;2.47;;;;;;;;;;4948311;29;20039;-78
2022/04/07 10:43:10;;;;;;;6.60;2.50;;;;;;;;;;4948849;28;20034;-78
2022/04/07 10:45:39;;;;;;;7.00;2.30;;;;;;;;;;4948929;29;20032;-78
2022/04/07 10:48:19;;;;;;;6.20;1.80;;;;;;;;;;4950935;29;20033;-78
2022/04/07 10:50:52;;;;;;;11.90;5.25;;;;;;;;;;4952445;29;20027;-78
2022/04/07 10:53:19;;;;;;;7.30;2.33;;;;;;;;;;4949589;29;20034;-78
2022/04/07 10:55:55;;;;;;;5.28;1.60;;;;;;;;;;4953204;29;20515;-78
2022/04/07 10:58:24;;;;;;;5.85;1.80;;;;;;;;;;4949189;29;20039;-78
2022/04/07 11:00:50;;;;;;;6.40;1.95;;;;;;;;;;4948460;29;20049;-78
2022/04/07 11:03:18;;;;;;;5.88;1.95;;;;;;;;;;4949294;29;20032;-78
2022/04/07 11:05:54;;;;;;;4.57;1.95;;;;;;;;;;4952641;28;20038;-78
2022/04/07 11:08:21;;;;;;;5.00;2.10;;;;;;;;;;4957206;29;20158;-78
2022/04/07 11:10:48;;;;;;;6.43;2.75;;;;;;;;;;4952621;29;20031;-78
2022/04/07 11:13:15;;;;;;;6.65;2.20;;;;;;;;;;4952431;29;20503;-78
2022/04/07 11:15:47;;;;;;;4.60;1.90;;;;;;;;;;4955480;29;20035;-78
2022/04/07 11:18:28;;;;;;;5.57;1.70;;;;;;;;;;4952835;29;20019;-78
2022/04/07 11:21:11;;;;;;;5.32;1.65;;;;;;;;;;4940775;29;20039;-78
2022/04/07 11:23:51;;;;;;;8.30;3.20;;;;;;;;;;4955049;29;20053;-78
2022/04/07 11:26:27;;;;;;;5.20;1.48;;;;;;;;;;4952983;29;20473;-78
2022/04/07 11:29:04;;;;;;;4.65;2.05;;;;;;;;;;4956163;29;20039;-78
2022/04/07 11:31:41;;;;;;;7.55;2.30;;;;;;;;;;4939899;29;20035;-78
2022/04/07 11:34:26;;;;;;;4.75;1.88;;;;;;;;;;4951749;29;20035;-78
2022/04/07 11:36:53;;;;;;;6.18;3.50;;;;;;;;;;4950502;29;20027;-79
2022/04/07 11:39:19;;;;;;;10.05;3.22;;;;;;;;;;4948904;29;20038;-78
2022/04/07 11:41:46;;;;;;;6.18;2.15;;;;;;;;;;4956336;29;20043;-78
2022/04/07 11:44:13;;;;;;;5.70;1.85;;;;;;;;;;4946999;29;20042;-78
2022/04/07 11:46:40;;;;;;;8.07;1.40;;;;;;;;;;4949877;29;20027;-78
2022/04/07 11:49:07;;;;;;;3.63;1.42;;;;;;;;;;4948871;29;20031;-78
2022/04/07 11:51:35;;;;;;;6.78;2.00;;;;;;;;;;4949606;29;20027;-78
2022/04/07 11:54:02;;;;;;;4.97;1.40;;;;;;;;;;4947728;29;20555;-79
2022/04/07 11:56:31;;;;;;;7.32;1.52;;;;;;;;;;4950680;29;20034;-78
2022/04/07 11:58:59;;;;;;;7.13;1.40;;;;;;;;;;4947641;29;20031;-78
2022/04/07 12:01:25;;;;;;;5.13;1.30;;;;;;;;;;4947721;29;20036;-78
2022/04/07 12:03:52;;;;;;;6.00;1.20;;;;;;;;;;4948907;29;20041;-78
2022/04/07 12:06:25;;;;;;;9.30;2.20;;;;;;;;;;4951289;29;20023;-78
2022/04/07 12:08:52;;;;;;;8.23;1.50;;;;;;;;;;4954338;29;20038;-78
2022/04/07 12:11:19;;;;;;;4.57;1.45;;;;;;;;;;4956190;29;20495;-78
2022/04/07 12:13:46;;;;;;;3.53;1.20;;;;;;;;;;4951406;29;20041;-78
2022/04/07 12:16:14;;;;;;;2.85;1.52;;;;;;;;;;4950622;29;20023;-79
2022/04/07 12:18:40;;;;;;;4.95;1.50;;;;;;;;;;4953477;28;20481;-79
2022/04/07 12:21:09;;;;;;;4.53;1.13;;;;;;;;;;4953408;29;20067;-78
2022/04/07 12:23:37;;;;;;;5.80;1.75;;;;;;;;;;4953272;29;20038;-78
2022/04/07 12:26:04;;;;;;;5.57;1.50;;;;;;;;;;4951223;29;20484;-79
2022/04/07 12:28:33;;;;;;;5.30;1.30;;;;;;;;;;4954971;29;20041;-78
2022/04/07 12:30:59;;;;;;;5.93;1.38;;;;;;;;;;4951148;29;20012;-78
2022/04/07 12:33:38;;;;;;;7.00;1.27;;;;;;;;;;4949584;29;20742;-78
2022/04/07 12:36:09;;;;;;;5.05;1.08;;;;;;;;;;4952981;29;20023;-78
2022/04/07 12:38:37;;;;;;;7.13;1.40;;;;;;;;;;4951778;29;20034;-78
2022/04/07 12:41:11;;;;;;;6.15;1.33;;;;;;;;;;4951180;29;20035;-78
2022/04/07 12:43:43;;;;;;;3.10;1.05;;;;;;;;;;4950567;29;20025;-79
2022/04/07 12:46:10;;;;;;;3.58;1.20;;;;;;;;;;4950614;29;20045;-79
2022/04/07 12:48:37;;;;;;;3.33;1.17;;;;;;;;;;4937542;29;20115;-79
2022/04/07 12:51:23;;;;;;;2.97;1.30;;;;;;;;;;4953102;29;20035;-79
2022/04/07 12:53:50;;;;;;;4.90;1.00;;;;;;;;;;4944396;29;20030;-78
2022/04/07 12:56:27;;;;;;;7.53;1.45;;;;;;;;;;4950655;29;20443;-78
2022/04/07 12:59:02;;;;;;;5.80;1.63;;;;;;;;;;4955065;29;20512;-78
2022/04/07 13:01:29;;;;;;;4.03;1.40;;;;;;;;;;4949674;29;20035;-78
2022/04/07 13:03:56;;;;;;;4.45;0.98;;;;;;;;;;4952600;29;20035;-78
2022/04/07 13:06:26;;;;;;;2.88;1.42;;;;;;;;;;4949532;29;20492;-78
2022/04/07 13:08:55;;;;;;;5.03;2.03;;;;;;;;;;4941370;29;20023;-78
2022/04/07 13:11:35;;;;;;;5.38;1.35;;;;;;;;;;4951247;29;20039;-77
2022/04/07 13:14:06;;;;;;;4.22;1.40;;;;;;;;;;4952725;29;20039;-78
2022/04/07 13:16:33;;;;;;;6.60;1.70;;;;;;;;;;4949470;29;20019;-77
2022/04/07 13:19:00;;;;;;;3.53;1.08;;;;;;;;;;4952788;29;20444;-77
2022/04/07 13:21:27;;;;;;;6.32;1.30;;;;;;;;;;4949424;29;20086;-79
2022/04/07 13:23:54;;;;;;;4.65;1.23;;;;;;;;;;4954162;29;20025;-78
2022/04/07 13:26:20;;;;;;;7.45;1.73;;;;;;;;;;4954504;29;20042;-78
2022/04/07 13:28:48;;;;;;;3.35;1.20;;;;;;;;;;4953800;28;20043;-78
2022/04/07 13:31:15;;;;;;;7.28;1.30;;;;;;;;;;4948805;29;20038;-78
2022/04/07 13:33:41;;;;;;;7.82;1.40;;;;;;;;;;4949838;29;20032;-78
2022/04/07 13:36:08;;;;;;;6.65;1.35;;;;;;;;;;4951649;29;20349;-78
2022/04/07 13:38:34;;;;;;;8.10;1.27;;;;;;;;;;4953382;29;20046;-78
2022/04/07 13:41:03;;;;;;;4.30;1.50;;;;;;;;;;4950155;29;20065;-78
2022/04/07 13:43:29;;;;;;;4.15;1.33;;;;;;;;;;4949467;29;20019;-77
2022/04/07 13:45:56;;;;;;;5.70;1.15;;;;;;;;;;4949088;29;20031;-77
2022/04/07 13:48:22;;;;;;;5.05;1.33;;;;;;;;;;4949669;29;20027;-78
2022/04/07 13:50:49;;;;;;;5.35;1.42;;;;;;;;;;4953744;29;20489;-78
2022/04/07 13:53:16;;;;;;;8.07;1.40;;;;;;;;;;4954192;29;20493;-78
2022/04/07 13:55:43;;;;;;;2.70;1.42;;;;;;;;;;4951384;28;20031;-79
2022/04/07 13:58:12;;;;;;;4.43;1.40;;;;;;;;;;4954011;28;20031;-78
2022/04/07 14:00:40;;;;;;;4.38;1.25;;;;;;;;;;4948823;29;20294;-78
2022/04/07 14:03:06;;;;;;;4.38;1.40;;;;;;;;;;4951223;29;20016;-79
2022/04/07 14:05:33;;;;;;;6.18;1.35;;;;;;;;;;4951597;29;20023;-79
2022/04/07 14:08:00;;;;;;;3.85;1.10;;;;;;;;;;4962475;28;20033;-78
2022/04/07 14:10:26;;;;;;;8.23;1.50;;;;;;;;;;4950424;28;20046;-79
2022/04/07 14:12:53;;;;;;;6.95;1.38;;;;;;;;;;4947925;29;20031;-78
2022/04/07 14:15:19;;;;;;;4.78;1.20;;;;;;;;;;4952696;29;20038;-79
2022/04/07 14:17:46;;;;;;;2.80;1.00;;;;;;;;;;4952996;29;20031;-79
2022/04/07 14:20:13;;;;;;;6.15;1.30;;;;;;;;;;4949187;29;20089;-79
2022/04/07 14:22:40;;;;;;;3.20;1.10;;;;;;;;;;4947726;29;20027;-79
2022/04/07 14:25:07;;;;;;;5.53;1.40;;;;;;;;;;4948848;29;20031;-79
2022/04/07 14:27:33;;;;;;;4.03;1.52;;;;;;;;;;4948589;29;20044;-79
2022/04/07 14:30:00;;;;;;;7.97;1.77;;;;;;;;;;4947817;29;20373;-79
2022/04/07 14:32:26;;;;;;;7.88;1.52;;;;;;;;;;4952729;29;20539;-79
2022/04/07 14:34:52;;;;;;;8.00;1.60;;;;;;;;;;4952661;29;20020;-78
2022/04/07 14:37:19;;;;;;;6.22;1.10;;;;;;;;;;4948204;29;20094;-79
2022/04/07 14:39:45;;;;;;;7.57;1.52;;;;;;;;;;4949025;29;20027;-79
2022/04/07 14:42:11;;;;;;;5.55;1.40;;;;;;;;;;4950004;28;20054;-78
2022/04/07 14:44:38;;;;;;;8.35;1.55;;;;;;;;;;4951723;29;20019;-78